sensor_id;sensor_type;location;lat;lon;timestamp;P1;durP1;ratioP1;P2;durP2;ratioP2
7573;SDS011;3828;48.922;9.116;2022-12-07T00:01:17;11.97;;;8.83;;
7573;SDS011;3828;48.922;9.116;2022-12-07T00:03:45;7.40;;;6.67;;
7573;SDS011;3828;48.922;9.116;2022-12-07T00:06:14;7.77;;;7.07;;
7573;SDS011;3828;48.922;9.116;2022-12-07T00:08:43;7.37;;;6.67;;
7573;SDS011;3828;48.922;9.116;2022-12-07T00:11:11;8.70;;;7.23;;
7573;SDS011;3828;48.922;9.116;2022-12-07T00:13:39;8.47;;;7.60;;
7573;SDS011;3828;48.922;9.116;2022-12-07T00:16:07;8.77;;;7.50;;
7573;SDS011;3828;48.922;9.116;2022-12-07T00:18:36;8.47;;;6.87;;
7573;SDS011;3828;48.922;9.116;2022-12-07T00:21:04;7.63;;;7.03;;
7573;SDS011;3828;48.922;9.116;2022-12-07T00:23:33;7.07;;;6.43;;
7573;SDS011;3828;48.922;9.116;2022-12-07T00:26:05;7.10;;;6.50;;
7573;SDS011;3828;48.922;9.116;2022-12-07T00:28:33;8.10;;;7.30;;
7573;SDS011;3828;48.922;9.116;2022-12-07T00:31:01;8.57;;;7.73;;
7573;SDS011;3828;48.922;9.116;2022-12-07T00:33:32;7.93;;;7.23;;
7573;SDS011;3828;48.922;9.116;2022-12-07T00:35:59;7.43;;;6.73;;
7573;SDS011;3828;48.922;9.116;2022-12-07T00:38:27;7.70;;;6.93;;
7573;SDS011;3828;48.922;9.116;2022-12-07T00:40:56;8.83;;;8.03;;
7573;SDS011;3828;48.922;9.116;2022-12-07T00:43:24;9.10;;;8.20;;
7573;SDS011;3828;48.922;9.116;2022-12-07T00:45:51;7.70;;;7.00;;
7573;SDS011;3828;48.922;9.116;2022-12-07T00:48:19;7.73;;;7.03;;
7573;SDS011;3828;48.922;9.116;2022-12-07T00:50:46;7.93;;;7.23;;
7573;SDS011;3828;48.922;9.116;2022-12-07T00:53:13;7.60;;;6.90;;
7573;SDS011;3828;48.922;9.116;2022-12-07T00:55:40;7.27;;;6.60;;
7573;SDS011;3828;48.922;9.116;2022-12-07T00:58:07;8.83;;;7.93;;
7573;SDS011;3828;48.922;9.116;2022-12-07T01:00:36;7.73;;;6.93;;
7573;SDS011;3828;48.922;9.116;2022-12-07T01:03:05;9.07;;;7.30;;
7573;SDS011;3828;48.922;9.116;2022-12-07T01:05:33;9.13;;;8.23;;
7573;SDS011;3828;48.922;9.116;2022-12-07T01:08:00;9.13;;;8.23;;
7573;SDS011;3828;48.922;9.116;2022-12-07T01:10:27;8.53;;;7.60;;
7573;SDS011;3828;48.922;9.116;2022-12-07T01:12:55;7.83;;;7.00;;
7573;SDS011;3828;48.922;9.116;2022-12-07T01:15:22;8.63;;;7.83;;
7573;SDS011;3828;48.922;9.116;2022-12-07T01:17:50;8.87;;;7.97;;
7573;SDS011;3828;48.922;9.116;2022-12-07T01:20:17;8.53;;;7.53;;
7573;SDS011;3828;48.922;9.116;2022-12-07T01:22:44;8.00;;;7.17;;
7573;SDS011;3828;48.922;9.116;2022-12-07T01:25:11;8.53;;;7.63;;
7573;SDS011;3828;48.922;9.116;2022-12-07T01:27:38;8.37;;;7.57;;
7573;SDS011;3828;48.922;9.116;2022-12-07T01:30:05;8.03;;;7.23;;
7573;SDS011;3828;48.922;9.116;2022-12-07T01:32:33;8.13;;;7.33;;
7573;SDS011;3828;48.922;9.116;2022-12-07T01:35:02;8.33;;;7.40;;
7573;SDS011;3828;48.922;9.116;2022-12-07T01:37:33;7.93;;;6.90;;
7573;SDS011;3828;48.922;9.116;2022-12-07T01:40:00;8.17;;;6.77;;
7573;SDS011;3828;48.922;9.116;2022-12-07T01:42:27;8.93;;;8.03;;
7573;SDS011;3828;48.922;9.116;2022-12-07T01:48:03;8.60;;;7.30;;
7573;SDS011;3828;48.922;9.116;2022-12-07T01:50:33;8.00;;;7.20;;
7573;SDS011;3828;48.922;9.116;2022-12-07T01:53:01;8.13;;;7.30;;
7573;SDS011;3828;48.922;9.116;2022-12-07T01:55:32;7.73;;;7.00;;
7573;SDS011;3828;48.922;9.116;2022-12-07T01:58:03;8.47;;;7.67;;
7573;SDS011;3828;48.922;9.116;2022-12-07T02:00:30;7.40;;;6.40;;
7573;SDS011;3828;48.922;9.116;2022-12-07T02:02:59;8.67;;;7.77;;
7573;SDS011;3828;48.922;9.116;2022-12-07T02:05:30;8.63;;;7.73;;
7573;SDS011;3828;48.922;9.116;2022-12-07T02:07:59;10.87;;;6.77;;
7573;SDS011;3828;48.922;9.116;2022-12-07T02:10:28;9.03;;;7.67;;
7573;SDS011;3828;48.922;9.116;2022-12-07T02:12:57;7.97;;;7.23;;
7573;SDS011;3828;48.922;9.116;2022-12-07T02:15:27;8.57;;;7.70;;
7573;SDS011;3828;48.922;9.116;2022-12-07T02:18:00;9.23;;;8.20;;
7573;SDS011;3828;48.922;9.116;2022-12-07T02:20:34;8.43;;;7.43;;
7573;SDS011;3828;48.922;9.116;2022-12-07T02:29:13;7.93;;;7.13;;
7573;SDS011;3828;48.922;9.116;2022-12-07T02:31:45;8.37;;;7.43;;
7573;SDS011;3828;48.922;9.116;2022-12-07T02:34:19;8.77;;;7.87;;
7573;SDS011;3828;48.922;9.116;2022-12-07T02:36:52;8.37;;;7.40;;
7573;SDS011;3828;48.922;9.116;2022-12-07T02:39:23;9.03;;;8.13;;
7573;SDS011;3828;48.922;9.116;2022-12-07T02:41:55;8.33;;;7.40;;
7573;SDS011;3828;48.922;9.116;2022-12-07T02:44:29;8.97;;;8.10;;
7573;SDS011;3828;48.922;9.116;2022-12-07T02:46:58;8.67;;;7.87;;
7573;SDS011;3828;48.922;9.116;2022-12-07T02:49:28;7.87;;;7.07;;
7573;SDS011;3828;48.922;9.116;2022-12-07T02:51:56;9.20;;;7.73;;
7573;SDS011;3828;48.922;9.116;2022-12-07T02:54:22;9.03;;;8.13;;
7573;SDS011;3828;48.922;9.116;2022-12-07T02:56:50;8.57;;;7.77;;
7573;SDS011;3828;48.922;9.116;2022-12-07T02:59:25;7.70;;;6.93;;
7573;SDS011;3828;48.922;9.116;2022-12-07T03:02:14;8.43;;;7.63;;
7573;SDS011;3828;48.922;9.116;2022-12-07T03:04:50;9.13;;;7.43;;
7573;SDS011;3828;48.922;9.116;2022-12-07T03:07:26;7.33;;;6.73;;
7573;SDS011;3828;48.922;9.116;2022-12-07T03:10:01;8.20;;;7.40;;
7573;SDS011;3828;48.922;9.116;2022-12-07T03:12:35;7.87;;;7.07;;
7573;SDS011;3828;48.922;9.116;2022-12-07T03:15:12;10.60;;;7.37;;
7573;SDS011;3828;48.922;9.116;2022-12-07T03:17:44;7.20;;;6.60;;
7573;SDS011;3828;48.922;9.116;2022-12-07T03:20:15;7.73;;;6.93;;
7573;SDS011;3828;48.922;9.116;2022-12-07T03:22:47;8.27;;;7.53;;
7573;SDS011;3828;48.922;9.116;2022-12-07T03:25:15;8.50;;;7.60;;
7573;SDS011;3828;48.922;9.116;2022-12-07T03:27:44;8.23;;;7.37;;
7573;SDS011;3828;48.922;9.116;2022-12-07T03:30:17;9.07;;;7.10;;
7573;SDS011;3828;48.922;9.116;2022-12-07T03:32:47;8.93;;;8.07;;
7573;SDS011;3828;48.922;9.116;2022-12-07T03:35:18;8.50;;;7.77;;
7573;SDS011;3828;48.922;9.116;2022-12-07T03:37:49;9.67;;;8.27;;
7573;SDS011;3828;48.922;9.116;2022-12-07T03:40:22;8.23;;;7.53;;
7573;SDS011;3828;48.922;9.116;2022-12-07T03:42:54;8.57;;;7.67;;
7573;SDS011;3828;48.922;9.116;2022-12-07T03:45:26;8.53;;;7.80;;
7573;SDS011;3828;48.922;9.116;2022-12-07T03:47:59;7.87;;;7.07;;
7573;SDS011;3828;48.922;9.116;2022-12-07T03:50:35;8.50;;;7.70;;
7573;SDS011;3828;48.922;9.116;2022-12-07T03:53:08;8.33;;;7.53;;
7573;SDS011;3828;48.922;9.116;2022-12-07T03:55:41;10.40;;;8.43;;
7573;SDS011;3828;48.922;9.116;2022-12-07T03:58:10;10.50;;;9.40;;
7573;SDS011;3828;48.922;9.116;2022-12-07T04:00:41;10.27;;;8.03;;
7573;SDS011;3828;48.922;9.116;2022-12-07T04:03:08;8.73;;;7.90;;
7573;SDS011;3828;48.922;9.116;2022-12-07T04:05:35;8.67;;;7.77;;
7573;SDS011;3828;48.922;9.116;2022-12-07T04:08:02;8.97;;;8.07;;
7573;SDS011;3828;48.922;9.116;2022-12-07T04:10:29;9.03;;;8.13;;
7573;SDS011;3828;48.922;9.116;2022-12-07T04:12:56;8.63;;;7.83;;
7573;SDS011;3828;48.922;9.116;2022-12-07T04:15:23;11.27;;;9.30;;
7573;SDS011;3828;48.922;9.116;2022-12-07T04:17:51;10.20;;;8.60;;
7573;SDS011;3828;48.922;9.116;2022-12-07T04:20:18;9.37;;;8.27;;
7573;SDS011;3828;48.922;9.116;2022-12-07T04:22:46;10.40;;;9.33;;
7573;SDS011;3828;48.922;9.116;2022-12-07T04:25:12;9.30;;;8.30;;
7573;SDS011;3828;48.922;9.116;2022-12-07T04:27:39;9.07;;;7.77;;
7573;SDS011;3828;48.922;9.116;2022-12-07T04:30:06;8.47;;;7.67;;
7573;SDS011;3828;48.922;9.116;2022-12-07T04:32:34;8.30;;;7.50;;
7573;SDS011;3828;48.922;9.116;2022-12-07T04:35:02;8.07;;;7.27;;
7573;SDS011;3828;48.922;9.116;2022-12-07T04:37:29;8.20;;;7.13;;
7573;SDS011;3828;48.922;9.116;2022-12-07T04:39:56;8.20;;;7.20;;
7573;SDS011;3828;48.922;9.116;2022-12-07T04:42:23;8.57;;;7.77;;
7573;SDS011;3828;48.922;9.116;2022-12-07T04:44:50;10.00;;;7.53;;
7573;SDS011;3828;48.922;9.116;2022-12-07T04:47:16;9.03;;;8.07;;
7573;SDS011;3828;48.922;9.116;2022-12-07T04:49:43;9.30;;;8.40;;
7573;SDS011;3828;48.922;9.116;2022-12-07T04:52:11;8.00;;;7.20;;
7573;SDS011;3828;48.922;9.116;2022-12-07T04:54:38;8.20;;;7.40;;
7573;SDS011;3828;48.922;9.116;2022-12-07T04:57:05;8.50;;;7.27;;
7573;SDS011;3828;48.922;9.116;2022-12-07T04:59:31;8.63;;;7.83;;
7573;SDS011;3828;48.922;9.116;2022-12-07T05:01:58;8.30;;;7.40;;
7573;SDS011;3828;48.922;9.116;2022-12-07T05:04:25;7.80;;;7.03;;
7573;SDS011;3828;48.922;9.116;2022-12-07T05:06:52;7.47;;;6.67;;
7573;SDS011;3828;48.922;9.116;2022-12-07T05:09:20;10.53;;;7.60;;
7573;SDS011;3828;48.922;9.116;2022-12-07T05:11:46;8.67;;;7.07;;
7573;SDS011;3828;48.922;9.116;2022-12-07T05:14:14;7.97;;;7.27;;
7573;SDS011;3828;48.922;9.116;2022-12-07T05:16:42;7.93;;;7.13;;
7573;SDS011;3828;48.922;9.116;2022-12-07T05:19:11;8.17;;;7.47;;
7573;SDS011;3828;48.922;9.116;2022-12-07T05:21:38;10.80;;;8.93;;
7573;SDS011;3828;48.922;9.116;2022-12-07T05:24:06;8.47;;;7.67;;
7573;SDS011;3828;48.922;9.116;2022-12-07T05:26:35;8.40;;;7.60;;
7573;SDS011;3828;48.922;9.116;2022-12-07T05:29:02;7.83;;;7.03;;
7573;SDS011;3828;48.922;9.116;2022-12-07T05:31:30;8.90;;;8.10;;
7573;SDS011;3828;48.922;9.116;2022-12-07T05:33:57;9.17;;;8.07;;
7573;SDS011;3828;48.922;9.116;2022-12-07T05:36:24;11.53;;;7.87;;
7573;SDS011;3828;48.922;9.116;2022-12-07T05:38:53;9.83;;;8.63;;
7573;SDS011;3828;48.922;9.116;2022-12-07T05:41:20;10.20;;;8.10;;
7573;SDS011;3828;48.922;9.116;2022-12-07T05:44:06;9.23;;;7.33;;
7573;SDS011;3828;48.922;9.116;2022-12-07T05:46:32;9.83;;;8.87;;
7573;SDS011;3828;48.922;9.116;2022-12-07T05:48:59;9.67;;;8.10;;
7573;SDS011;3828;48.922;9.116;2022-12-07T05:51:26;8.53;;;7.17;;
7573;SDS011;3828;48.922;9.116;2022-12-07T05:53:53;8.67;;;7.77;;
7573;SDS011;3828;48.922;9.116;2022-12-07T05:56:20;8.07;;;7.10;;
7573;SDS011;3828;48.922;9.116;2022-12-07T05:58:47;9.47;;;7.70;;
7573;SDS011;3828;48.922;9.116;2022-12-07T06:01:33;8.67;;;7.47;;
7573;SDS011;3828;48.922;9.116;2022-12-07T06:03:59;8.77;;;7.53;;
7573;SDS011;3828;48.922;9.116;2022-12-07T06:06:26;7.67;;;6.97;;
7573;SDS011;3828;48.922;9.116;2022-12-07T06:08:53;7.80;;;7.10;;
7573;SDS011;3828;48.922;9.116;2022-12-07T06:11:20;9.23;;;7.57;;
7573;SDS011;3828;48.922;9.116;2022-12-07T06:14:04;7.20;;;6.50;;
7573;SDS011;3828;48.922;9.116;2022-12-07T06:16:31;8.03;;;7.33;;
7573;SDS011;3828;48.922;9.116;2022-12-07T06:18:59;8.73;;;7.50;;
7573;SDS011;3828;48.922;9.116;2022-12-07T06:21:25;7.97;;;6.53;;
7573;SDS011;3828;48.922;9.116;2022-12-07T06:23:52;7.97;;;7.17;;
7573;SDS011;3828;48.922;9.116;2022-12-07T06:26:19;7.27;;;6.57;;
7573;SDS011;3828;48.922;9.116;2022-12-07T06:28:46;7.20;;;6.50;;
7573;SDS011;3828;48.922;9.116;2022-12-07T06:31:13;7.63;;;6.83;;
7573;SDS011;3828;48.922;9.116;2022-12-07T06:33:41;8.27;;;5.73;;
7573;SDS011;3828;48.922;9.116;2022-12-07T06:36:08;7.73;;;6.70;;
7573;SDS011;3828;48.922;9.116;2022-12-07T06:38:35;9.57;;;7.33;;
7573;SDS011;3828;48.922;9.116;2022-12-07T06:41:02;8.97;;;6.53;;
7573;SDS011;3828;48.922;9.116;2022-12-07T06:43:29;7.83;;;6.73;;
7573;SDS011;3828;48.922;9.116;2022-12-07T06:45:56;7.67;;;6.93;;
7573;SDS011;3828;48.922;9.116;2022-12-07T06:48:23;8.87;;;6.83;;
7573;SDS011;3828;48.922;9.116;2022-12-07T06:50:51;7.40;;;6.70;;
7573;SDS011;3828;48.922;9.116;2022-12-07T06:53:18;7.23;;;6.53;;
7573;SDS011;3828;48.922;9.116;2022-12-07T06:55:45;7.97;;;7.03;;
7573;SDS011;3828;48.922;9.116;2022-12-07T06:58:12;6.80;;;6.17;;
7573;SDS011;3828;48.922;9.116;2022-12-07T07:00:38;6.67;;;6.07;;
7573;SDS011;3828;48.922;9.116;2022-12-07T07:03:05;9.27;;;6.80;;
7573;SDS011;3828;48.922;9.116;2022-12-07T07:05:32;7.17;;;6.53;;
7573;SDS011;3828;48.922;9.116;2022-12-07T07:08:00;11.10;;;8.50;;
7573;SDS011;3828;48.922;9.116;2022-12-07T07:10:27;8.70;;;7.67;;
7573;SDS011;3828;48.922;9.116;2022-12-07T07:12:54;9.07;;;7.03;;
7573;SDS011;3828;48.922;9.116;2022-12-07T07:15:21;5.70;;;5.20;;
7573;SDS011;3828;48.922;9.116;2022-12-07T07:17:48;6.37;;;5.77;;
7573;SDS011;3828;48.922;9.116;2022-12-07T07:20:14;6.20;;;5.60;;
7573;SDS011;3828;48.922;9.116;2022-12-07T07:22:41;6.40;;;5.80;;
7573;SDS011;3828;48.922;9.116;2022-12-07T07:25:09;6.93;;;6.23;;
7573;SDS011;3828;48.922;9.116;2022-12-07T07:27:36;7.70;;;6.30;;
7573;SDS011;3828;48.922;9.116;2022-12-07T07:30:03;6.30;;;5.70;;
7573;SDS011;3828;48.922;9.116;2022-12-07T07:32:31;6.93;;;6.27;;
7573;SDS011;3828;48.922;9.116;2022-12-07T07:34:58;8.23;;;6.20;;
7573;SDS011;3828;48.922;9.116;2022-12-07T07:37:25;6.20;;;5.67;;
7573;SDS011;3828;48.922;9.116;2022-12-07T07:39:52;5.97;;;5.37;;
7573;SDS011;3828;48.922;9.116;2022-12-07T07:42:20;6.40;;;5.90;;
7573;SDS011;3828;48.922;9.116;2022-12-07T07:44:47;5.93;;;5.13;;
7573;SDS011;3828;48.922;9.116;2022-12-07T07:47:14;6.07;;;5.50;;
7573;SDS011;3828;48.922;9.116;2022-12-07T07:49:40;6.77;;;5.70;;
7573;SDS011;3828;48.922;9.116;2022-12-07T07:52:07;6.97;;;6.20;;
7573;SDS011;3828;48.922;9.116;2022-12-07T07:54:34;5.77;;;5.27;;
7573;SDS011;3828;48.922;9.116;2022-12-07T07:57:01;5.03;;;4.63;;
7573;SDS011;3828;48.922;9.116;2022-12-07T07:59:29;5.67;;;5.10;;
7573;SDS011;3828;48.922;9.116;2022-12-07T08:01:56;12.77;;;8.23;;
7573;SDS011;3828;48.922;9.116;2022-12-07T08:04:22;10.63;;;7.87;;
7573;SDS011;3828;48.922;9.116;2022-12-07T08:06:49;7.33;;;6.60;;
7573;SDS011;3828;48.922;9.116;2022-12-07T08:09:16;6.80;;;6.03;;
7573;SDS011;3828;48.922;9.116;2022-12-07T08:11:43;6.77;;;6.07;;
7573;SDS011;3828;48.922;9.116;2022-12-07T08:14:10;6.60;;;5.70;;
7573;SDS011;3828;48.922;9.116;2022-12-07T08:16:38;6.17;;;5.07;;
7573;SDS011;3828;48.922;9.116;2022-12-07T08:19:05;5.77;;;5.17;;
7573;SDS011;3828;48.922;9.116;2022-12-07T08:21:32;7.80;;;5.87;;
7573;SDS011;3828;48.922;9.116;2022-12-07T08:23:59;6.27;;;5.67;;
7573;SDS011;3828;48.922;9.116;2022-12-07T08:26:25;6.27;;;5.70;;
7573;SDS011;3828;48.922;9.116;2022-12-07T08:28:52;5.73;;;4.87;;
7573;SDS011;3828;48.922;9.116;2022-12-07T08:31:19;4.97;;;4.57;;
7573;SDS011;3828;48.922;9.116;2022-12-07T08:33:48;5.97;;;5.40;;
7573;SDS011;3828;48.922;9.116;2022-12-07T08:36:15;6.53;;;5.20;;
7573;SDS011;3828;48.922;9.116;2022-12-07T08:38:43;5.90;;;5.40;;
7573;SDS011;3828;48.922;9.116;2022-12-07T08:41:09;6.27;;;5.43;;
7573;SDS011;3828;48.922;9.116;2022-12-07T08:43:36;6.60;;;5.77;;
7573;SDS011;3828;48.922;9.116;2022-12-07T08:46:05;6.07;;;5.47;;
7573;SDS011;3828;48.922;9.116;2022-12-07T08:48:35;5.87;;;5.33;;
7573;SDS011;3828;48.922;9.116;2022-12-07T08:51:06;6.43;;;5.80;;
7573;SDS011;3828;48.922;9.116;2022-12-07T08:53:33;7.80;;;6.30;;
7573;SDS011;3828;48.922;9.116;2022-12-07T08:56:01;7.20;;;6.50;;
7573;SDS011;3828;48.922;9.116;2022-12-07T08:58:28;7.13;;;5.90;;
7573;SDS011;3828;48.922;9.116;2022-12-07T09:00:54;8.13;;;7.27;;
7573;SDS011;3828;48.922;9.116;2022-12-07T09:03:21;9.80;;;6.50;;
7573;SDS011;3828;48.922;9.116;2022-12-07T09:05:48;9.67;;;5.73;;
7573;SDS011;3828;48.922;9.116;2022-12-07T09:08:16;5.93;;;5.40;;
7573;SDS011;3828;48.922;9.116;2022-12-07T09:10:43;6.93;;;6.13;;
7573;SDS011;3828;48.922;9.116;2022-12-07T09:13:10;7.63;;;5.37;;
7573;SDS011;3828;48.922;9.116;2022-12-07T09:15:37;7.20;;;5.30;;
7573;SDS011;3828;48.922;9.116;2022-12-07T09:18:03;5.73;;;5.17;;
7573;SDS011;3828;48.922;9.116;2022-12-07T09:20:30;6.77;;;5.00;;
7573;SDS011;3828;48.922;9.116;2022-12-07T09:22:57;8.10;;;5.77;;
7573;SDS011;3828;48.922;9.116;2022-12-07T09:25:25;7.00;;;6.10;;
7573;SDS011;3828;48.922;9.116;2022-12-07T09:27:55;6.67;;;5.90;;
7573;SDS011;3828;48.922;9.116;2022-12-07T09:30:22;5.10;;;4.53;;
7573;SDS011;3828;48.922;9.116;2022-12-07T09:32:59;5.13;;;4.63;;
7573;SDS011;3828;48.922;9.116;2022-12-07T09:35:38;5.83;;;4.63;;
7573;SDS011;3828;48.922;9.116;2022-12-07T09:38:10;5.43;;;4.60;;
7573;SDS011;3828;48.922;9.116;2022-12-07T09:40:38;5.60;;;4.43;;
7573;SDS011;3828;48.922;9.116;2022-12-07T09:43:11;5.53;;;5.13;;
7573;SDS011;3828;48.922;9.116;2022-12-07T09:45:41;5.23;;;4.73;;
7573;SDS011;3828;48.922;9.116;2022-12-07T09:48:11;5.40;;;4.90;;
7573;SDS011;3828;48.922;9.116;2022-12-07T09:50:44;4.93;;;4.47;;
7573;SDS011;3828;48.922;9.116;2022-12-07T09:53:13;9.20;;;4.50;;
7573;SDS011;3828;48.922;9.116;2022-12-07T09:55:45;6.47;;;4.90;;
7573;SDS011;3828;48.922;9.116;2022-12-07T09:58:12;5.60;;;5.10;;
7573;SDS011;3828;48.922;9.116;2022-12-07T10:00:44;4.93;;;4.43;;
7573;SDS011;3828;48.922;9.116;2022-12-07T10:03:11;4.23;;;3.70;;
7573;SDS011;3828;48.922;9.116;2022-12-07T10:05:39;5.00;;;4.50;;
7573;SDS011;3828;48.922;9.116;2022-12-07T10:08:09;4.10;;;3.77;;
7573;SDS011;3828;48.922;9.116;2022-12-07T10:10:39;4.57;;;4.20;;
7573;SDS011;3828;48.922;9.116;2022-12-07T10:13:08;5.33;;;4.00;;
7573;SDS011;3828;48.922;9.116;2022-12-07T10:15:43;6.97;;;4.37;;
7573;SDS011;3828;48.922;9.116;2022-12-07T10:18:29;4.87;;;3.97;;
7573;SDS011;3828;48.922;9.116;2022-12-07T10:21:03;4.00;;;3.70;;
7573;SDS011;3828;48.922;9.116;2022-12-07T10:23:34;3.40;;;3.10;;
7573;SDS011;3828;48.922;9.116;2022-12-07T10:26:15;3.73;;;3.43;;
7573;SDS011;3828;48.922;9.116;2022-12-07T10:28:49;4.03;;;3.50;;
7573;SDS011;3828;48.922;9.116;2022-12-07T10:31:16;5.93;;;3.67;;
7573;SDS011;3828;48.922;9.116;2022-12-07T10:33:49;4.23;;;3.77;;
7573;SDS011;3828;48.922;9.116;2022-12-07T10:36:18;4.40;;;4.00;;
7573;SDS011;3828;48.922;9.116;2022-12-07T10:38:49;4.93;;;4.40;;
7573;SDS011;3828;48.922;9.116;2022-12-07T10:41:17;5.67;;;4.60;;
7573;SDS011;3828;48.922;9.116;2022-12-07T10:43:50;5.40;;;4.67;;
7573;SDS011;3828;48.922;9.116;2022-12-07T10:46:23;6.17;;;5.13;;
7573;SDS011;3828;48.922;9.116;2022-12-07T10:49:24;5.30;;;4.80;;
7573;SDS011;3828;48.922;9.116;2022-12-07T10:52:06;5.77;;;4.63;;
7573;SDS011;3828;48.922;9.116;2022-12-07T10:54:41;6.10;;;4.90;;
7573;SDS011;3828;48.922;9.116;2022-12-07T10:57:41;5.57;;;5.07;;
7573;SDS011;3828;48.922;9.116;2022-12-07T11:00:19;5.87;;;5.37;;
7573;SDS011;3828;48.922;9.116;2022-12-07T11:06:03;5.40;;;4.90;;
7573;SDS011;3828;48.922;9.116;2022-12-07T11:08:41;5.60;;;5.10;;
7573;SDS011;3828;48.922;9.116;2022-12-07T11:11:45;6.13;;;5.53;;
7573;SDS011;3828;48.922;9.116;2022-12-07T11:14:16;6.77;;;6.07;;
7573;SDS011;3828;48.922;9.116;2022-12-07T11:16:52;6.83;;;5.40;;
7573;SDS011;3828;48.922;9.116;2022-12-07T11:19:26;6.73;;;6.10;;
7573;SDS011;3828;48.922;9.116;2022-12-07T11:22:06;6.53;;;5.83;;
7573;SDS011;3828;48.922;9.116;2022-12-07T11:24:43;9.10;;;5.93;;
7573;SDS011;3828;48.922;9.116;2022-12-07T11:27:19;8.97;;;6.23;;
7573;SDS011;3828;48.922;9.116;2022-12-07T11:29:57;6.67;;;6.07;;
7573;SDS011;3828;48.922;9.116;2022-12-07T11:32:38;9.33;;;5.83;;
7573;SDS011;3828;48.922;9.116;2022-12-07T11:35:18;9.30;;;6.47;;
7573;SDS011;3828;48.922;9.116;2022-12-07T11:37:56;7.43;;;6.60;;
7573;SDS011;3828;48.922;9.116;2022-12-07T11:40:27;6.73;;;6.03;;
7573;SDS011;3828;48.922;9.116;2022-12-07T11:42:59;6.80;;;6.20;;
7573;SDS011;3828;48.922;9.116;2022-12-07T11:45:30;6.07;;;5.10;;
7573;SDS011;3828;48.922;9.116;2022-12-07T11:48:01;5.70;;;5.10;;
7573;SDS011;3828;48.922;9.116;2022-12-07T11:50:33;6.33;;;5.73;;
7573;SDS011;3828;48.922;9.116;2022-12-07T11:53:03;6.10;;;5.07;;
7573;SDS011;3828;48.922;9.116;2022-12-07T11:55:40;6.23;;;5.40;;
7573;SDS011;3828;48.922;9.116;2022-12-07T11:58:15;6.77;;;5.30;;
7573;SDS011;3828;48.922;9.116;2022-12-07T12:01:04;6.40;;;5.67;;
7573;SDS011;3828;48.922;9.116;2022-12-07T12:03:40;8.63;;;6.80;;
7573;SDS011;3828;48.922;9.116;2022-12-07T12:06:10;6.93;;;6.23;;
7573;SDS011;3828;48.922;9.116;2022-12-07T12:08:38;6.57;;;5.80;;
7573;SDS011;3828;48.922;9.116;2022-12-07T12:11:10;6.87;;;5.90;;
7573;SDS011;3828;48.922;9.116;2022-12-07T12:13:51;7.10;;;5.70;;
7573;SDS011;3828;48.922;9.116;2022-12-07T12:16:38;9.30;;;6.77;;
7573;SDS011;3828;48.922;9.116;2022-12-07T12:19:24;7.47;;;6.73;;
7573;SDS011;3828;48.922;9.116;2022-12-07T12:22:00;7.87;;;7.07;;
7573;SDS011;3828;48.922;9.116;2022-12-07T12:24:34;6.93;;;6.30;;
7573;SDS011;3828;48.922;9.116;2022-12-07T12:27:02;7.93;;;6.13;;
7573;SDS011;3828;48.922;9.116;2022-12-07T12:29:33;10.20;;;7.40;;
7573;SDS011;3828;48.922;9.116;2022-12-07T12:32:05;7.60;;;6.80;;
7573;SDS011;3828;48.922;9.116;2022-12-07T12:34:39;8.87;;;6.53;;
7573;SDS011;3828;48.922;9.116;2022-12-07T12:40:37;13.03;;;10.30;;
7573;SDS011;3828;48.922;9.116;2022-12-07T12:46:36;8.53;;;6.87;;
7573;SDS011;3828;48.922;9.116;2022-12-07T12:49:24;10.60;;;7.43;;
7573;SDS011;3828;48.922;9.116;2022-12-07T12:58:28;8.33;;;7.53;;
7573;SDS011;3828;48.922;9.116;2022-12-07T13:04:24;9.07;;;7.90;;
7573;SDS011;3828;48.922;9.116;2022-12-07T13:07:47;7.60;;;6.80;;
7573;SDS011;3828;48.922;9.116;2022-12-07T13:10:20;8.20;;;7.37;;
7573;SDS011;3828;48.922;9.116;2022-12-07T13:12:55;10.93;;;8.37;;
7573;SDS011;3828;48.922;9.116;2022-12-07T13:15:32;8.93;;;7.73;;
7573;SDS011;3828;48.922;9.116;2022-12-07T13:18:04;9.30;;;7.53;;
7573;SDS011;3828;48.922;9.116;2022-12-07T13:20:50;11.53;;;8.17;;
7573;SDS011;3828;48.922;9.116;2022-12-07T13:23:31;9.73;;;8.20;;
7573;SDS011;3828;48.922;9.116;2022-12-07T13:26:04;8.00;;;7.13;;
7573;SDS011;3828;48.922;9.116;2022-12-07T13:28:50;8.87;;;7.90;;
7573;SDS011;3828;48.922;9.116;2022-12-07T13:31:34;8.93;;;7.70;;
7573;SDS011;3828;48.922;9.116;2022-12-07T13:34:04;9.87;;;8.17;;
7573;SDS011;3828;48.922;9.116;2022-12-07T13:36:32;8.87;;;7.87;;
7573;SDS011;3828;48.922;9.116;2022-12-07T13:39:18;12.07;;;8.97;;
7573;SDS011;3828;48.922;9.116;2022-12-07T13:41:49;10.30;;;8.93;;
7573;SDS011;3828;48.922;9.116;2022-12-07T13:44:18;9.33;;;7.93;;
7573;SDS011;3828;48.922;9.116;2022-12-07T13:46:48;8.90;;;7.53;;
7573;SDS011;3828;48.922;9.116;2022-12-07T13:49:21;9.07;;;7.63;;
7573;SDS011;3828;48.922;9.116;2022-12-07T13:51:50;8.93;;;8.03;;
7573;SDS011;3828;48.922;9.116;2022-12-07T13:54:19;9.43;;;8.40;;
7573;SDS011;3828;48.922;9.116;2022-12-07T13:56:47;11.83;;;8.40;;
7573;SDS011;3828;48.922;9.116;2022-12-07T13:59:17;10.23;;;9.13;;
7573;SDS011;3828;48.922;9.116;2022-12-07T14:01:47;10.50;;;8.17;;
7573;SDS011;3828;48.922;9.116;2022-12-07T14:07:00;10.63;;;9.53;;
7573;SDS011;3828;48.922;9.116;2022-12-07T14:09:52;9.23;;;8.20;;
7573;SDS011;3828;48.922;9.116;2022-12-07T14:12:24;11.27;;;9.53;;
7573;SDS011;3828;48.922;9.116;2022-12-07T14:14:53;10.97;;;9.13;;
7573;SDS011;3828;48.922;9.116;2022-12-07T14:17:21;10.93;;;8.53;;
7573;SDS011;3828;48.922;9.116;2022-12-07T14:19:50;9.37;;;8.13;;
7573;SDS011;3828;48.922;9.116;2022-12-07T14:22:22;10.77;;;8.47;;
7573;SDS011;3828;48.922;9.116;2022-12-07T14:25:11;11.77;;;8.87;;
7573;SDS011;3828;48.922;9.116;2022-12-07T14:27:50;11.80;;;8.30;;
7573;SDS011;3828;48.922;9.116;2022-12-07T14:30:20;10.83;;;8.77;;
7573;SDS011;3828;48.922;9.116;2022-12-07T14:32:49;9.23;;;7.63;;
7573;SDS011;3828;48.922;9.116;2022-12-07T14:35:19;10.63;;;8.90;;
7573;SDS011;3828;48.922;9.116;2022-12-07T14:37:46;10.83;;;9.00;;
7573;SDS011;3828;48.922;9.116;2022-12-07T14:40:16;9.77;;;8.77;;
7573;SDS011;3828;48.922;9.116;2022-12-07T14:42:45;11.37;;;8.13;;
7573;SDS011;3828;48.922;9.116;2022-12-07T14:45:14;11.90;;;8.47;;
7573;SDS011;3828;48.922;9.116;2022-12-07T14:47:43;9.27;;;8.33;;
7573;SDS011;3828;48.922;9.116;2022-12-07T14:50:11;9.30;;;8.17;;
7573;SDS011;3828;48.922;9.116;2022-12-07T14:52:39;10.60;;;7.90;;
7573;SDS011;3828;48.922;9.116;2022-12-07T14:55:12;8.73;;;7.57;;
7573;SDS011;3828;48.922;9.116;2022-12-07T14:57:42;9.23;;;8.10;;
7573;SDS011;3828;48.922;9.116;2022-12-07T15:00:09;10.80;;;8.37;;
7573;SDS011;3828;48.922;9.116;2022-12-07T15:02:40;11.80;;;9.23;;
7573;SDS011;3828;48.922;9.116;2022-12-07T15:05:07;11.40;;;8.27;;
7573;SDS011;3828;48.922;9.116;2022-12-07T15:07:34;9.60;;;8.30;;
7573;SDS011;3828;48.922;9.116;2022-12-07T15:10:01;12.43;;;10.03;;
7573;SDS011;3828;48.922;9.116;2022-12-07T15:12:28;14.37;;;9.27;;
7573;SDS011;3828;48.922;9.116;2022-12-07T15:14:57;12.10;;;10.27;;
7573;SDS011;3828;48.922;9.116;2022-12-07T15:17:23;11.53;;;8.60;;
7573;SDS011;3828;48.922;9.116;2022-12-07T15:19:50;12.33;;;10.50;;
7573;SDS011;3828;48.922;9.116;2022-12-07T15:22:17;13.53;;;9.83;;
7573;SDS011;3828;48.922;9.116;2022-12-07T15:24:44;15.47;;;11.27;;
7573;SDS011;3828;48.922;9.116;2022-12-07T15:27:11;15.70;;;10.90;;
7573;SDS011;3828;48.922;9.116;2022-12-07T15:29:37;14.00;;;9.90;;
7573;SDS011;3828;48.922;9.116;2022-12-07T15:32:06;14.33;;;10.17;;
7573;SDS011;3828;48.922;9.116;2022-12-07T15:34:32;11.37;;;9.37;;
7573;SDS011;3828;48.922;9.116;2022-12-07T15:36:59;11.27;;;9.97;;
7573;SDS011;3828;48.922;9.116;2022-12-07T15:39:26;14.60;;;10.37;;
7573;SDS011;3828;48.922;9.116;2022-12-07T15:41:53;13.03;;;10.57;;
7573;SDS011;3828;48.922;9.116;2022-12-07T15:44:19;11.53;;;10.33;;
7573;SDS011;3828;48.922;9.116;2022-12-07T15:47:05;11.77;;;9.27;;
7573;SDS011;3828;48.922;9.116;2022-12-07T15:49:32;15.67;;;11.13;;
7573;SDS011;3828;48.922;9.116;2022-12-07T15:51:59;10.57;;;8.83;;
7573;SDS011;3828;48.922;9.116;2022-12-07T15:54:27;9.43;;;8.37;;
7573;SDS011;3828;48.922;9.116;2022-12-07T15:56:55;12.53;;;9.40;;
7573;SDS011;3828;48.922;9.116;2022-12-07T15:59:22;10.20;;;8.63;;
7573;SDS011;3828;48.922;9.116;2022-12-07T16:01:51;13.93;;;9.97;;
7573;SDS011;3828;48.922;9.116;2022-12-07T16:04:19;10.30;;;8.87;;